createdAt,value
2018-04-18T00:00:18.903Z,13.77
2018-04-18T00:02:45.201Z,13.68
2018-04-18T00:05:11.534Z,13.34
2018-04-18T00:07:37.881Z,13.52
2018-04-18T00:10:04.245Z,13.40
2018-04-18T00:12:30.630Z,13.38
2018-04-18T00:14:56.978Z,13.36
2018-04-18T00:17:23.413Z,13.25
2018-04-18T00:19:49.733Z,13.55
2018-04-18T00:22:16.078Z,13.59
2018-04-18T00:24:42.398Z,13.61
2018-04-18T00:27:08.735Z,13.62
2018-04-18T00:29:35.049Z,13.29
2018-04-18T00:32:01.374Z,13.50
2018-04-18T00:34:27.702Z,13.05
2018-04-18T00:36:54.018Z,13.26
2018-04-18T00:39:20.341Z,13.10
2018-04-18T00:41:46.665Z,13.29
2018-04-18T00:44:13.025Z,13.17
2018-04-18T00:46:39.379Z,13.13
2018-04-18T00:49:05.806Z,13.41
2018-04-18T00:51:32.144Z,13.39
2018-04-18T00:53:58.479Z,13.45
2018-04-18T00:56:24.797Z,13.38
2018-04-18T00:58:51.130Z,13.41
2018-04-18T01:01:17.474Z,13.34
2018-04-18T01:03:43.786Z,13.45
2018-04-18T01:06:10.102Z,13.18
2018-04-18T01:08:36.421Z,13.11
2018-04-18T01:11:02.794Z,13.25
2018-04-18T01:13:29.132Z,13.38
2018-04-18T01:15:55.504Z,13.36
2018-04-18T01:18:21.855Z,13.30
2018-04-18T01:20:48.178Z,13.25
2018-04-18T01:23:14.485Z,13.12
2018-04-18T01:25:40.814Z,13.41
2018-04-18T01:28:07.121Z,13.47
2018-04-18T01:30:33.466Z,13.51
2018-04-18T01:32:59.910Z,13.64
2018-04-18T01:35:26.258Z,13.64
2018-04-18T01:37:52.592Z,13.55
2018-04-18T01:40:18.929Z,13.46
2018-04-18T01:42:45.330Z,13.19
2018-04-18T01:45:11.689Z,13.30
2018-04-18T01:47:38.008Z,13.37
2018-04-18T01:50:04.347Z,13.34
2018-04-18T01:52:30.722Z,13.42
2018-04-18T01:54:57.088Z,13.44
2018-04-18T01:57:23.418Z,13.45
2018-04-18T01:59:49.957Z,13.25
2018-04-18T02:02:16.283Z,13.10
2018-04-18T02:04:42.646Z,13.11
2018-04-18T02:07:08.970Z,13.40
2018-04-18T02:09:35.315Z,13.04
2018-04-18T02:12:01.678Z,13.37
2018-04-18T02:14:28.010Z,13.18
2018-04-18T02:16:54.349Z,12.89
2018-04-18T02:19:20.814Z,12.89
2018-04-18T02:21:47.133Z,13.15
2018-04-18T02:24:13.468Z,12.84
2018-04-18T02:26:39.784Z,12.91
2018-04-18T02:29:06.151Z,12.86
2018-04-18T02:31:32.544Z,13.01
2018-04-18T02:33:58.918Z,13.03
2018-04-18T02:36:25.287Z,13.02
2018-04-18T02:38:51.673Z,12.83
2018-04-18T02:41:18.093Z,13.03
2018-04-18T02:43:44.417Z,12.98
2018-04-18T02:46:10.815Z,13.07
2018-04-18T02:48:37.194Z,13.07
2018-04-18T02:51:03.606Z,12.83
2018-04-18T02:53:29.930Z,12.78
2018-04-18T02:55:56.317Z,12.70
2018-04-18T02:58:22.649Z,12.67
2018-04-18T03:00:48.987Z,12.39
2018-04-18T03:03:15.330Z,12.46
2018-04-18T03:05:41.642Z,12.43
2018-04-18T03:08:08.005Z,12.38
2018-04-18T03:10:34.340Z,12.43
2018-04-18T03:13:00.664Z,12.50
2018-04-18T03:15:27.006Z,12.41
2018-04-18T03:17:53.368Z,12.42
2018-04-18T03:20:19.734Z,12.37
2018-04-18T03:22:46.062Z,12.53
2018-04-18T03:25:12.466Z,12.34
2018-04-18T03:27:38.816Z,12.39
2018-04-18T03:30:05.149Z,12.29
2018-04-18T03:32:31.537Z,12.23
2018-04-18T03:34:57.921Z,12.25
2018-04-18T03:37:24.255Z,12.33
2018-04-18T03:39:50.586Z,12.64
2018-04-18T03:42:16.929Z,12.80
2018-04-18T03:44:43.249Z,12.79
2018-04-18T03:47:09.560Z,12.71
2018-04-18T03:49:35.973Z,12.71
2018-04-18T03:52:02.286Z,12.78
2018-04-18T03:54:28.602Z,12.62
2018-04-18T03:56:54.938Z,12.79
2018-04-18T03:59:21.258Z,12.52
2018-04-18T04:01:47.594Z,12.48
2018-04-18T04:04:13.926Z,12.42
2018-04-18T04:06:41.147Z,12.39
2018-04-18T04:09:07.489Z,12.53
2018-04-18T04:11:33.834Z,12.19
2018-04-18T04:14:00.465Z,12.03
2018-04-18T04:16:39.097Z,12.22
2018-04-18T04:19:17.518Z,12.10
2018-04-18T04:21:56.098Z,12.34
2018-04-18T04:24:36.506Z,12.51
2018-04-18T04:27:02.869Z,12.56
2018-04-18T04:29:29.209Z,12.56
2018-04-18T04:31:55.522Z,12.56
2018-04-18T04:34:21.930Z,12.41
2018-04-18T04:36:48.253Z,12.66
2018-04-18T04:39:14.581Z,12.80
2018-04-18T04:41:41.064Z,12.67
2018-04-18T04:44:07.413Z,12.77
2018-04-18T04:46:33.742Z,13.09
2018-04-18T04:49:00.086Z,13.18
2018-04-18T04:51:26.426Z,13.23
2018-04-18T04:53:52.743Z,13.30
2018-04-18T04:56:19.061Z,13.35
2018-04-18T04:58:45.464Z,13.36
2018-04-18T05:01:11.846Z,13.48
2018-04-18T05:03:38.181Z,13.44
2018-04-18T05:06:04.549Z,13.53
2018-04-18T05:08:30.865Z,13.84
2018-04-18T05:10:57.311Z,13.86
2018-04-18T05:13:23.666Z,13.96
2018-04-18T05:15:49.988Z,13.95
2018-04-18T05:18:16.473Z,14.13
2018-04-18T05:20:42.959Z,14.32
2018-04-18T05:23:09.289Z,14.41
2018-04-18T05:25:35.674Z,14.57
2018-04-18T05:28:02.014Z,14.76
2018-04-18T05:30:28.530Z,14.87
2018-04-18T05:32:54.866Z,15.01
2018-04-18T05:35:21.210Z,15.12
2018-04-18T05:37:47.585Z,15.16
2018-04-18T05:40:13.975Z,15.29
2018-04-18T05:42:40.345Z,15.26
2018-04-18T05:45:06.791Z,14.99
2018-04-18T05:47:33.271Z,15.15
2018-04-18T05:49:59.818Z,15.28
2018-04-18T05:52:26.141Z,15.38
2018-04-18T05:54:52.517Z,15.46
2018-04-18T05:57:18.946Z,15.73
2018-04-18T05:59:45.294Z,15.85
2018-04-18T06:02:11.611Z,15.98
2018-04-18T06:04:38.101Z,16.14
2018-04-18T06:07:04.604Z,16.24
2018-04-18T06:09:30.998Z,16.40
2018-04-18T06:11:57.426Z,16.60
2018-04-18T06:14:23.781Z,16.73
2018-04-18T06:16:50.174Z,16.72
2018-04-18T06:19:16.538Z,16.66
2018-04-18T06:21:42.910Z,16.73
2018-04-18T06:24:09.233Z,16.90
2018-04-18T06:26:35.732Z,16.82
2018-04-18T06:29:02.041Z,16.89
2018-04-18T06:31:28.369Z,16.93
2018-04-18T06:33:54.697Z,17.06
2018-04-18T06:36:21.019Z,16.91
2018-04-18T06:38:47.365Z,17.02
2018-04-18T06:41:13.741Z,17.00
2018-04-18T06:43:40.071Z,16.98
2018-04-18T06:46:06.487Z,17.17
2018-04-18T06:48:32.806Z,17.25
2018-04-18T06:50:59.144Z,17.29
2018-04-18T06:53:25.485Z,17.49
2018-04-18T06:55:51.811Z,17.57
2018-04-18T06:58:18.152Z,17.57
2018-04-18T07:00:44.473Z,17.47
2018-04-18T07:03:10.818Z,17.74
2018-04-18T07:05:37.150Z,17.85
2018-04-18T07:08:03.474Z,17.92
2018-04-18T07:10:29.813Z,18.07
2018-04-18T07:12:56.163Z,17.83
2018-04-18T07:15:22.663Z,17.86
2018-04-18T07:17:48.974Z,17.85
2018-04-18T07:20:15.308Z,17.93
2018-04-18T07:22:41.643Z,18.11
2018-04-18T07:25:07.966Z,18.36
2018-04-18T07:27:34.582Z,18.52
2018-04-18T07:30:00.970Z,18.48
2018-04-18T07:32:27.293Z,18.46
2018-04-18T07:34:54.090Z,18.48
2018-04-18T07:37:20.411Z,18.62
2018-04-18T07:39:46.769Z,18.74
2018-04-18T07:42:13.124Z,18.73
2018-04-18T07:44:39.451Z,18.80
2018-04-18T07:47:05.781Z,18.89
2018-04-18T07:49:32.116Z,18.94
2018-04-18T07:51:58.551Z,18.84
2018-04-18T07:54:24.996Z,19.01
2018-04-18T07:56:51.321Z,18.81
2018-04-18T07:59:17.681Z,18.94
2018-04-18T08:01:44.010Z,19.05
2018-04-18T08:04:10.513Z,19.26
2018-04-18T08:06:36.843Z,19.30
2018-04-18T08:09:03.266Z,19.38
2018-04-18T08:11:29.645Z,19.48
2018-04-18T08:13:55.997Z,19.35
2018-04-18T08:16:22.387Z,19.47
2018-04-18T08:18:48.723Z,19.62
2018-04-18T08:21:15.138Z,19.68
2018-04-18T08:23:41.530Z,19.80
2018-04-18T08:26:08.125Z,19.86
2018-04-18T08:28:34.486Z,19.92
2018-04-18T08:31:01.082Z,19.91
2018-04-18T08:33:27.385Z,19.96
2018-04-18T08:35:53.717Z,19.99
2018-04-18T08:38:20.034Z,20.11
2018-04-18T08:40:46.366Z,20.21
2018-04-18T08:43:12.685Z,20.27
2018-04-18T08:45:39.010Z,20.39
2018-04-18T08:48:05.351Z,20.25
2018-04-18T08:50:31.698Z,20.42
2018-04-18T08:52:58.074Z,20.54
2018-04-18T08:55:24.409Z,20.62
2018-04-18T08:57:50.730Z,20.80
2018-04-18T09:00:17.484Z,20.84
2018-04-18T09:02:43.906Z,20.87
2018-04-18T09:05:10.324Z,20.95
2018-04-18T09:07:36.638Z,20.94
2018-04-18T09:10:03.343Z,20.89
2018-04-18T09:12:29.705Z,20.98
2018-04-18T09:14:56.034Z,21.10
2018-04-18T09:17:22.357Z,21.28
2018-04-18T09:19:48.678Z,21.27
2018-04-18T09:22:15.065Z,21.24
2018-04-18T09:24:41.534Z,21.34
2018-04-18T09:27:08.459Z,21.46
2018-04-18T09:29:34.959Z,21.43
2018-04-18T09:32:01.708Z,21.52
2018-04-18T09:34:28.045Z,21.58
2018-04-18T09:36:54.357Z,21.56
2018-04-18T09:39:20.662Z,21.56
2018-04-18T09:41:46.985Z,21.72
2018-04-18T09:44:13.335Z,21.64
2018-04-18T09:46:39.967Z,21.63
2018-04-18T09:49:06.301Z,21.76
2018-04-18T09:51:32.613Z,21.80
2018-04-18T09:53:58.938Z,21.82
2018-04-18T09:56:25.399Z,21.93
2018-04-18T09:58:51.762Z,21.95
2018-04-18T10:01:19.370Z,22.05
2018-04-18T10:03:51.707Z,22.05
2018-04-18T10:06:18.046Z,21.97
2018-04-18T10:08:44.374Z,22.00
2018-04-18T10:11:10.712Z,22.11
2018-04-18T10:13:37.042Z,22.21
2018-04-18T10:16:03.550Z,22.28
2018-04-18T10:18:29.885Z,22.43
2018-04-18T10:20:56.211Z,22.45
2018-04-18T10:23:22.518Z,22.55
2018-04-18T10:25:49.084Z,22.49
2018-04-18T10:28:15.512Z,22.52
2018-04-18T10:30:41.828Z,22.52
2018-04-18T10:33:08.350Z,22.62
2018-04-18T10:35:34.683Z,22.58
2018-04-18T10:38:01.037Z,22.61
2018-04-18T10:40:27.374Z,22.69
2018-04-18T10:42:53.884Z,22.83
2018-04-18T10:45:20.394Z,22.85
2018-04-18T10:47:46.742Z,22.84
2018-04-18T10:50:13.126Z,22.90
2018-04-18T10:52:39.639Z,22.92
2018-04-18T10:55:06.197Z,22.89
2018-04-18T10:57:32.542Z,22.99
2018-04-18T10:59:59.038Z,23.08
2018-04-18T11:02:25.391Z,23.12
2018-04-18T11:04:51.778Z,23.08
2018-04-18T11:07:18.153Z,23.10
2018-04-18T11:09:44.497Z,23.16
2018-04-18T11:12:10.903Z,23.17
2018-04-18T11:14:37.232Z,23.20
2018-04-18T11:17:03.563Z,23.13
2018-04-18T11:19:29.996Z,23.18
2018-04-18T11:21:56.330Z,23.19
2018-04-18T11:24:22.695Z,23.15
2018-04-18T11:26:49.070Z,23.36
2018-04-18T11:29:15.440Z,23.43
2018-04-18T11:31:41.787Z,23.40
2018-04-18T11:34:08.238Z,23.29
2018-04-18T11:36:34.598Z,23.30
2018-04-18T11:39:00.977Z,23.39
2018-04-18T11:41:27.387Z,23.44
2018-04-18T11:43:53.718Z,23.48
2018-04-18T11:46:20.050Z,23.59
2018-04-18T11:48:46.435Z,23.55
2018-04-18T11:51:12.750Z,23.50
2018-04-18T11:53:39.125Z,23.56
2018-04-18T11:56:05.511Z,23.55
2018-04-18T11:58:31.831Z,23.60
2018-04-18T12:00:58.240Z,23.68
2018-04-18T12:03:24.567Z,23.61
2018-04-18T12:05:50.943Z,23.51
2018-04-18T12:08:17.287Z,23.54
2018-04-18T12:10:43.617Z,23.52
2018-04-18T12:13:10.126Z,23.57
2018-04-18T12:15:36.539Z,23.62
2018-04-18T12:18:03.154Z,23.67
2018-04-18T12:20:29.655Z,23.67
2018-04-18T12:22:55.975Z,23.72
2018-04-18T12:25:22.370Z,23.62
2018-04-18T12:27:48.727Z,23.78
2018-04-18T12:30:15.057Z,23.83
2018-04-18T12:32:41.378Z,23.80
2018-04-18T12:35:07.719Z,23.84
2018-04-18T12:37:34.046Z,23.78
2018-04-18T12:40:00.459Z,23.81
2018-04-18T12:42:26.788Z,23.72
2018-04-18T12:44:53.509Z,23.73
2018-04-18T12:47:19.819Z,23.69
2018-04-18T12:49:46.157Z,23.77
2018-04-18T12:52:12.637Z,23.75
2018-04-18T12:54:39.062Z,23.84
2018-04-18T12:57:05.385Z,23.84
2018-04-18T12:59:31.718Z,23.77
2018-04-18T13:01:58.027Z,23.81
2018-04-18T13:04:24.381Z,23.78
2018-04-18T13:06:50.918Z,23.80
2018-04-18T13:09:17.244Z,23.78
2018-04-18T13:11:43.726Z,23.75
2018-04-18T13:14:10.049Z,23.57
2018-04-18T13:16:36.548Z,23.59
2018-04-18T13:19:02.941Z,23.65
2018-04-18T13:21:29.604Z,23.61
2018-04-18T13:23:56.257Z,23.73
2018-04-18T13:26:22.611Z,23.77
2018-04-18T13:28:49.124Z,23.85
2018-04-18T13:31:15.502Z,23.86
2018-04-18T13:33:41.824Z,23.83
2018-04-18T13:36:08.145Z,23.88
2018-04-18T13:38:34.566Z,23.91
2018-04-18T13:41:00.940Z,23.90
2018-04-18T13:43:27.251Z,23.91
2018-04-18T13:45:53.719Z,23.96
2018-04-18T13:48:20.046Z,23.84
2018-04-18T13:50:46.421Z,23.98
2018-04-18T13:53:12.948Z,24.02
2018-04-18T13:55:39.342Z,24.02
2018-04-18T13:58:05.690Z,23.97
2018-04-18T14:00:32.097Z,23.93
2018-04-18T14:02:58.423Z,23.93
2018-04-18T14:05:24.755Z,23.94
2018-04-18T14:07:51.087Z,23.96
2018-04-18T14:10:17.557Z,23.97
2018-04-18T14:12:44.057Z,23.98
2018-04-18T14:15:10.575Z,23.95
2018-04-18T14:17:36.995Z,23.99
2018-04-18T14:20:03.383Z,24.01
2018-04-18T14:22:29.715Z,24.02
2018-04-18T14:24:56.033Z,24.00
2018-04-18T14:27:22.370Z,23.89
2018-04-18T14:29:48.728Z,23.87
2018-04-18T14:32:15.050Z,23.83
2018-04-18T14:34:41.366Z,23.77
2018-04-18T14:37:07.725Z,23.89
2018-04-18T14:39:34.057Z,23.90
2018-04-18T14:42:00.382Z,23.99
2018-04-18T14:44:26.691Z,23.97
2018-04-18T14:46:53.110Z,23.92
2018-04-18T14:49:19.431Z,23.82
2018-04-18T14:51:45.838Z,23.78
2018-04-18T14:54:12.166Z,23.84
2018-04-18T14:56:45.545Z,23.85
2018-04-18T14:59:18.737Z,23.73
2018-04-18T15:01:45.070Z,23.72
2018-04-18T15:04:11.438Z,23.75
2018-04-18T15:06:37.759Z,23.75
2018-04-18T15:09:05.110Z,23.80
2018-04-18T15:11:31.481Z,23.76
2018-04-18T15:13:57.965Z,23.73
2018-04-18T15:16:24.294Z,23.85
2018-04-18T15:18:50.638Z,23.87
2018-04-18T15:21:17.043Z,23.85
2018-04-18T15:23:43.358Z,23.79
2018-04-18T15:26:09.830Z,23.74
2018-04-18T15:28:36.315Z,23.83
2018-04-18T15:31:02.647Z,23.75
2018-04-18T15:33:29.010Z,23.70
2018-04-18T15:35:55.370Z,23.73
2018-04-18T15:38:21.950Z,23.68
2018-04-18T15:40:48.281Z,23.71
2018-04-18T15:43:14.610Z,23.65
2018-04-18T15:45:40.941Z,23.69
2018-04-18T15:48:07.300Z,23.57
2018-04-18T15:50:33.640Z,23.58
2018-04-18T15:52:59.960Z,23.56
2018-04-18T15:55:26.309Z,23.53
2018-04-18T15:57:52.624Z,23.53
2018-04-18T16:00:18.966Z,23.40
2018-04-18T16:02:45.314Z,23.40
2018-04-18T16:05:11.657Z,23.41
2018-04-18T16:07:38.002Z,23.40
2018-04-18T16:10:04.366Z,23.36
2018-04-18T16:12:30.686Z,23.30
2018-04-18T16:14:57.065Z,23.28
2018-04-18T16:17:23.394Z,23.24
2018-04-18T16:19:49.891Z,23.20
2018-04-18T16:22:16.241Z,23.26
2018-04-18T16:24:42.573Z,23.21
2018-04-18T16:27:09.109Z,23.18
2018-04-18T16:29:42.683Z,23.12
2018-04-18T16:32:08.970Z,23.07
2018-04-18T16:34:35.342Z,23.05
2018-04-18T16:37:01.681Z,23.00
2018-04-18T16:39:27.994Z,22.96
2018-04-18T16:41:54.377Z,22.89
2018-04-18T16:44:20.714Z,22.87
2018-04-18T16:46:47.055Z,22.79
2018-04-18T16:49:13.373Z,22.73
2018-04-18T16:51:39.695Z,22.70
2018-04-18T16:54:06.021Z,22.54
2018-04-18T16:56:32.352Z,22.56
2018-04-18T16:58:58.669Z,22.54
2018-04-18T17:01:24.990Z,22.35
2018-04-18T17:03:51.466Z,22.50
2018-04-18T17:06:17.785Z,22.46
2018-04-18T17:08:44.153Z,22.44
2018-04-18T17:11:10.482Z,22.37
2018-04-18T17:13:36.877Z,22.32
2018-04-18T17:16:03.309Z,22.28
2018-04-18T17:18:29.641Z,22.27
2018-04-18T17:20:56.022Z,22.24
2018-04-18T17:23:22.341Z,22.18
2018-04-18T17:25:48.658Z,22.21
2018-04-18T17:28:15.148Z,22.23
2018-04-18T17:30:41.484Z,22.12
2018-04-18T17:33:07.810Z,22.05
2018-04-18T17:35:34.266Z,21.97
2018-04-18T17:38:00.628Z,21.93
2018-04-18T17:40:26.989Z,21.87
2018-04-18T17:42:53.316Z,21.83
2018-04-18T17:45:19.622Z,21.77
2018-04-18T17:47:45.958Z,21.69
2018-04-18T17:50:12.274Z,21.64
2018-04-18T17:52:38.611Z,21.56
2018-04-18T17:55:04.950Z,21.54
2018-04-18T17:57:31.275Z,21.53
2018-04-18T17:59:57.607Z,21.50
2018-04-18T18:02:23.930Z,21.49
2018-04-18T18:04:50.293Z,21.50
2018-04-18T18:07:16.642Z,21.50
2018-04-18T18:09:42.999Z,21.42
2018-04-18T18:12:09.310Z,21.39
2018-04-18T18:14:35.642Z,21.40
2018-04-18T18:17:01.979Z,21.37
2018-04-18T18:19:28.322Z,21.35
2018-04-18T18:21:54.689Z,21.31
2018-04-18T18:24:21.062Z,21.26
2018-04-18T18:26:48.341Z,21.20
2018-04-18T18:29:14.672Z,21.16
2018-04-18T18:31:41.003Z,21.14
2018-04-18T18:34:07.437Z,21.10
2018-04-18T18:36:33.869Z,21.09
2018-04-18T18:39:00.199Z,21.09
2018-04-18T18:41:26.508Z,21.07
2018-04-18T18:43:52.838Z,21.03
2018-04-18T18:46:19.202Z,20.99
2018-04-18T18:48:45.532Z,20.94
2018-04-18T18:51:11.851Z,20.90
2018-04-18T18:53:38.294Z,20.81
2018-04-18T18:56:04.605Z,20.87
2018-04-18T18:58:30.934Z,20.89
2018-04-18T19:00:57.268Z,20.86
2018-04-18T19:03:23.593Z,20.79
2018-04-18T19:05:49.930Z,20.79
2018-04-18T19:08:16.380Z,20.72
2018-04-18T19:10:42.718Z,20.68
2018-04-18T19:13:09.056Z,20.64
2018-04-18T19:15:35.448Z,20.63
2018-04-18T19:18:01.766Z,20.62
2018-04-18T19:20:28.101Z,20.58
2018-04-18T19:22:54.471Z,20.62
2018-04-18T19:25:20.797Z,20.47
2018-04-18T19:27:47.281Z,20.48
2018-04-18T19:30:13.630Z,20.46
2018-04-18T19:32:39.997Z,20.43
2018-04-18T19:35:06.306Z,20.12
2018-04-18T19:37:32.638Z,20.25
2018-04-18T19:39:58.968Z,20.31
2018-04-18T19:42:25.301Z,20.31
2018-04-18T19:44:51.780Z,20.29
2018-04-18T19:47:18.311Z,20.29
2018-04-18T19:49:44.690Z,20.28
2018-04-18T19:52:11.005Z,20.24
2018-04-18T19:54:37.358Z,20.22
2018-04-18T19:57:03.694Z,20.21
2018-04-18T19:59:30.096Z,20.20
2018-04-18T20:01:56.481Z,20.16
2018-04-18T20:04:22.790Z,20.14
2018-04-18T20:06:49.501Z,20.12
2018-04-18T20:09:15.899Z,20.07
2018-04-18T20:11:42.743Z,20.04
2018-04-18T20:14:09.177Z,19.95
2018-04-18T20:16:35.517Z,19.89
2018-04-18T20:19:01.856Z,19.74
2018-04-18T20:21:28.194Z,19.75
2018-04-18T20:23:54.517Z,19.70
2018-04-18T20:26:20.861Z,19.60
2018-04-18T20:28:47.201Z,19.57
2018-04-18T20:31:13.510Z,19.23
2018-04-18T20:33:39.859Z,19.13
2018-04-18T20:36:06.169Z,19.19
2018-04-18T20:38:32.498Z,19.18
2018-04-18T20:40:58.761Z,19.17
2018-04-18T20:43:25.107Z,19.00
2018-04-18T20:45:51.464Z,19.01
2018-04-18T20:48:17.788Z,18.65
2018-04-18T20:50:44.125Z,18.69
2018-04-18T20:53:10.456Z,18.70
2018-04-18T20:55:36.807Z,18.57
2018-04-18T20:58:03.134Z,18.53
2018-04-18T21:00:29.478Z,18.55
2018-04-18T21:02:55.806Z,18.62
2018-04-18T21:05:22.213Z,18.52
2018-04-18T21:07:48.526Z,18.56
2018-04-18T21:10:14.871Z,18.36
2018-04-18T21:12:41.197Z,18.21
2018-04-18T21:15:07.640Z,18.11
2018-04-18T21:17:33.949Z,18.06
2018-04-18T21:20:00.228Z,18.04
2018-04-18T21:22:26.563Z,18.07
2018-04-18T21:24:52.835Z,17.95
2018-04-18T21:27:19.101Z,18.00
2018-04-18T21:29:45.424Z,17.98
2018-04-18T21:32:11.757Z,17.97
2018-04-18T21:34:38.105Z,17.99
2018-04-18T21:37:04.420Z,17.81
2018-04-18T21:39:30.732Z,17.36
2018-04-18T21:41:57.037Z,17.42
2018-04-18T21:44:23.345Z,17.41
2018-04-18T21:46:49.674Z,17.52
2018-04-18T21:49:16.006Z,17.25
2018-04-18T21:51:42.346Z,17.35
2018-04-18T21:54:08.709Z,17.39
2018-04-18T21:56:35.063Z,17.38
2018-04-18T21:59:01.417Z,17.41
2018-04-18T22:01:27.729Z,17.29
2018-04-18T22:03:54.041Z,17.02
2018-04-18T22:06:20.414Z,17.23
2018-04-18T22:08:46.883Z,17.10
2018-04-18T22:11:13.292Z,16.71
2018-04-18T22:13:39.636Z,16.56
2018-04-18T22:16:06.042Z,16.85
2018-04-18T22:18:32.336Z,16.98
2018-04-18T22:20:58.674Z,16.99
2018-04-18T22:23:25.018Z,16.97
2018-04-18T22:25:51.366Z,17.15
2018-04-18T22:28:17.702Z,17.12
2018-04-18T22:30:44.033Z,17.02
2018-04-18T22:33:10.417Z,17.02
2018-04-18T22:35:36.789Z,17.00
2018-04-18T22:38:03.124Z,16.81
2018-04-18T22:40:29.505Z,16.84
2018-04-18T22:42:55.862Z,16.92
2018-04-18T22:45:22.192Z,16.91
2018-04-18T22:47:48.533Z,16.77
2018-04-18T22:50:14.881Z,16.62
2018-04-18T22:52:41.235Z,16.81
2018-04-18T22:55:07.581Z,16.85
2018-04-18T22:57:33.977Z,16.66
2018-04-18T23:00:00.357Z,16.66
2018-04-18T23:02:26.819Z,16.79
2018-04-18T23:04:53.194Z,16.82
2018-04-18T23:07:19.528Z,16.85
2018-04-18T23:09:45.885Z,16.87
2018-04-18T23:12:12.217Z,16.66
2018-04-18T23:14:38.551Z,16.23
2018-04-18T23:17:04.934Z,16.20
2018-04-18T23:19:31.262Z,16.22
2018-04-18T23:21:57.605Z,16.23
2018-04-18T23:24:23.982Z,16.23
2018-04-18T23:26:50.321Z,16.24
2018-04-18T23:29:16.667Z,16.14
2018-04-18T23:31:43.016Z,16.27
2018-04-18T23:34:09.351Z,16.29
2018-04-18T23:36:35.698Z,16.27
2018-04-18T23:39:02.127Z,16.32
2018-04-18T23:41:28.485Z,16.21
2018-04-18T23:43:54.828Z,16.28
2018-04-18T23:46:21.168Z,16.20
2018-04-18T23:48:47.593Z,16.17
2018-04-18T23:51:13.909Z,16.25
2018-04-18T23:53:40.249Z,15.99
2018-04-18T23:56:06.588Z,15.98
2018-04-18T23:58:32.929Z,16.00
